sensor_id;sensor_type;location;lat;lon;timestamp;temperature;humidity
26408;DHT22;14583;43.604;1.364;2023-04-15T00:00:26;11.60;99.90
26408;DHT22;14583;43.604;1.364;2023-04-15T00:02:53;11.60;99.90
26408;DHT22;14583;43.604;1.364;2023-04-15T00:05:20;11.60;99.90
26408;DHT22;14583;43.604;1.364;2023-04-15T00:07:45;11.50;99.90
26408;DHT22;14583;43.604;1.364;2023-04-15T00:10:12;11.50;99.90
26408;DHT22;14583;43.604;1.364;2023-04-15T00:12:38;11.50;99.90
26408;DHT22;14583;43.604;1.364;2023-04-15T00:15:04;11.50;99.90
26408;DHT22;14583;43.604;1.364;2023-04-15T00:17:31;11.50;99.90
26408;DHT22;14583;43.604;1.364;2023-04-15T00:19:56;11.50;99.90
26408;DHT22;14583;43.604;1.364;2023-04-15T00:22:24;11.50;99.90
26408;DHT22;14583;43.604;1.364;2023-04-15T00:24:52;11.50;99.90
26408;DHT22;14583;43.604;1.364;2023-04-15T00:27:17;11.50;99.90
26408;DHT22;14583;43.604;1.364;2023-04-15T00:29:43;11.50;99.90
26408;DHT22;14583;43.604;1.364;2023-04-15T00:32:09;11.60;99.90
26408;DHT22;14583;43.604;1.364;2023-04-15T00:34:35;11.60;99.90
26408;DHT22;14583;43.604;1.364;2023-04-15T00:37:01;11.60;99.90
26408;DHT22;14583;43.604;1.364;2023-04-15T00:39:27;11.60;99.90
26408;DHT22;14583;43.604;1.364;2023-04-15T00:41:52;11.60;99.90
26408;DHT22;14583;43.604;1.364;2023-04-15T00:44:19;11.60;99.90
26408;DHT22;14583;43.604;1.364;2023-04-15T00:46:46;11.60;99.90
26408;DHT22;14583;43.604;1.364;2023-04-15T00:49:13;11.50;99.90
26408;DHT22;14583;43.604;1.364;2023-04-15T00:51:38;11.60;99.90
26408;DHT22;14583;43.604;1.364;2023-04-15T00:54:05;11.50;99.90
26408;DHT22;14583;43.604;1.364;2023-04-15T00:56:36;11.60;99.90
26408;DHT22;14583;43.604;1.364;2023-04-15T00:59:03;11.60;99.90
26408;DHT22;14583;43.604;1.364;2023-04-15T01:01:29;11.60;99.90
26408;DHT22;14583;43.604;1.364;2023-04-15T01:03:56;11.50;99.90
26408;DHT22;14583;43.604;1.364;2023-04-15T01:06:23;11.50;99.90
26408;DHT22;14583;43.604;1.364;2023-04-15T01:08:49;11.40;99.90
26408;DHT22;14583;43.604;1.364;2023-04-15T01:11:15;11.40;99.90
26408;DHT22;14583;43.604;1.364;2023-04-15T01:13:41;11.30;99.90
26408;DHT22;14583;43.604;1.364;2023-04-15T01:16:07;11.30;99.90
26408;DHT22;14583;43.604;1.364;2023-04-15T01:18:34;11.30;99.90
26408;DHT22;14583;43.604;1.364;2023-04-15T01:21:02;11.30;99.90
26408;DHT22;14583;43.604;1.364;2023-04-15T01:23:29;11.40;99.90
26408;DHT22;14583;43.604;1.364;2023-04-15T01:25:55;11.40;99.90
26408;DHT22;14583;43.604;1.364;2023-04-15T01:28:22;11.40;99.90
26408;DHT22;14583;43.604;1.364;2023-04-15T01:30:48;11.40;99.90
26408;DHT22;14583;43.604;1.364;2023-04-15T01:33:14;11.40;99.90
26408;DHT22;14583;43.604;1.364;2023-04-15T01:35:40;11.50;99.90
26408;DHT22;14583;43.604;1.364;2023-04-15T01:38:09;11.60;99.90
26408;DHT22;14583;43.604;1.364;2023-04-15T01:40:35;11.60;99.90
26408;DHT22;14583;43.604;1.364;2023-04-15T01:43:01;11.60;99.90
26408;DHT22;14583;43.604;1.364;2023-04-15T01:45:28;11.60;99.90
26408;DHT22;14583;43.604;1.364;2023-04-15T01:47:54;11.60;99.90
26408;DHT22;14583;43.604;1.364;2023-04-15T01:50:20;11.50;99.90
26408;DHT22;14583;43.604;1.364;2023-04-15T01:52:46;11.50;99.90
26408;DHT22;14583;43.604;1.364;2023-04-15T01:55:13;11.50;99.90
26408;DHT22;14583;43.604;1.364;2023-04-15T01:57:39;11.50;99.90
26408;DHT22;14583;43.604;1.364;2023-04-15T02:00:05;11.40;99.90
26408;DHT22;14583;43.604;1.364;2023-04-15T02:02:32;11.30;99.90
26408;DHT22;14583;43.604;1.364;2023-04-15T02:04:58;11.30;99.90
26408;DHT22;14583;43.604;1.364;2023-04-15T02:07:25;11.20;99.90
26408;DHT22;14583;43.604;1.364;2023-04-15T02:09:51;11.30;99.90
26408;DHT22;14583;43.604;1.364;2023-04-15T02:12:17;11.20;99.90
26408;DHT22;14583;43.604;1.364;2023-04-15T02:14:43;11.10;99.90
26408;DHT22;14583;43.604;1.364;2023-04-15T02:17:08;11.10;99.90
26408;DHT22;14583;43.604;1.364;2023-04-15T02:19:35;11.10;99.90
26408;DHT22;14583;43.604;1.364;2023-04-15T02:22:00;11.10;99.90
26408;DHT22;14583;43.604;1.364;2023-04-15T02:24:27;11.00;99.90
26408;DHT22;14583;43.604;1.364;2023-04-15T02:26:53;11.00;99.90
26408;DHT22;14583;43.604;1.364;2023-04-15T02:29:18;11.00;99.90
26408;DHT22;14583;43.604;1.364;2023-04-15T02:31:44;11.00;99.90
26408;DHT22;14583;43.604;1.364;2023-04-15T02:34:10;10.90;99.90
26408;DHT22;14583;43.604;1.364;2023-04-15T02:36:36;10.90;99.90
26408;DHT22;14583;43.604;1.364;2023-04-15T02:39:02;10.90;99.90
26408;DHT22;14583;43.604;1.364;2023-04-15T02:41:28;10.80;99.90
26408;DHT22;14583;43.604;1.364;2023-04-15T02:43:55;10.80;99.90
26408;DHT22;14583;43.604;1.364;2023-04-15T02:46:21;10.70;99.90
26408;DHT22;14583;43.604;1.364;2023-04-15T02:48:48;10.70;99.90
26408;DHT22;14583;43.604;1.364;2023-04-15T02:51:16;10.80;99.90
26408;DHT22;14583;43.604;1.364;2023-04-15T02:53:42;10.90;99.90
26408;DHT22;14583;43.604;1.364;2023-04-15T02:56:08;10.90;99.90
26408;DHT22;14583;43.604;1.364;2023-04-15T02:58:35;10.90;99.90
26408;DHT22;14583;43.604;1.364;2023-04-15T03:01:01;10.90;99.90
26408;DHT22;14583;43.604;1.364;2023-04-15T03:03:26;11.00;99.90
26408;DHT22;14583;43.604;1.364;2023-04-15T03:05:53;11.10;99.90
26408;DHT22;14583;43.604;1.364;2023-04-15T03:08:18;11.10;99.90
26408;DHT22;14583;43.604;1.364;2023-04-15T03:10:45;11.10;99.90
26408;DHT22;14583;43.604;1.364;2023-04-15T03:13:12;11.00;99.90
26408;DHT22;14583;43.604;1.364;2023-04-15T03:15:37;11.00;99.90
26408;DHT22;14583;43.604;1.364;2023-04-15T03:18:03;11.00;99.90
26408;DHT22;14583;43.604;1.364;2023-04-15T03:20:29;11.00;99.90
26408;DHT22;14583;43.604;1.364;2023-04-15T03:22:55;10.90;99.90
26408;DHT22;14583;43.604;1.364;2023-04-15T03:25:20;10.90;99.90
26408;DHT22;14583;43.604;1.364;2023-04-15T03:27:46;10.90;99.90
26408;DHT22;14583;43.604;1.364;2023-04-15T03:30:12;11.00;99.90
26408;DHT22;14583;43.604;1.364;2023-04-15T03:32:38;11.00;99.90
26408;DHT22;14583;43.604;1.364;2023-04-15T03:35:04;11.00;99.90
26408;DHT22;14583;43.604;1.364;2023-04-15T03:37:30;10.90;99.90
26408;DHT22;14583;43.604;1.364;2023-04-15T03:39:56;11.00;99.90
26408;DHT22;14583;43.604;1.364;2023-04-15T03:42:22;10.90;99.90
26408;DHT22;14583;43.604;1.364;2023-04-15T03:44:47;10.90;99.90
26408;DHT22;14583;43.604;1.364;2023-04-15T03:47:13;10.90;99.90
26408;DHT22;14583;43.604;1.364;2023-04-15T03:49:39;10.90;99.90
26408;DHT22;14583;43.604;1.364;2023-04-15T03:52:04;10.90;99.90
26408;DHT22;14583;43.604;1.364;2023-04-15T03:54:30;10.90;99.90
26408;DHT22;14583;43.604;1.364;2023-04-15T03:56:56;10.90;99.90
26408;DHT22;14583;43.604;1.364;2023-04-15T03:59:22;10.90;99.90
26408;DHT22;14583;43.604;1.364;2023-04-15T04:01:48;11.00;99.90
26408;DHT22;14583;43.604;1.364;2023-04-15T04:04:13;11.00;99.90
26408;DHT22;14583;43.604;1.364;2023-04-15T04:06:39;11.10;99.90
26408;DHT22;14583;43.604;1.364;2023-04-15T04:09:05;11.10;99.90
26408;DHT22;14583;43.604;1.364;2023-04-15T04:11:30;11.10;99.90
26408;DHT22;14583;43.604;1.364;2023-04-15T04:13:57;11.00;99.90
26408;DHT22;14583;43.604;1.364;2023-04-15T04:16:23;11.10;99.90
26408;DHT22;14583;43.604;1.364;2023-04-15T04:18:48;11.00;99.90
26408;DHT22;14583;43.604;1.364;2023-04-15T04:21:14;11.00;99.90
26408;DHT22;14583;43.604;1.364;2023-04-15T04:23:40;11.00;99.90
26408;DHT22;14583;43.604;1.364;2023-04-15T04:26:06;11.00;99.90
26408;DHT22;14583;43.604;1.364;2023-04-15T04:28:31;11.00;99.90
26408;DHT22;14583;43.604;1.364;2023-04-15T04:30:57;10.90;99.90
26408;DHT22;14583;43.604;1.364;2023-04-15T04:33:23;10.90;99.90
26408;DHT22;14583;43.604;1.364;2023-04-15T04:35:48;11.00;99.90
26408;DHT22;14583;43.604;1.364;2023-04-15T04:38:14;10.90;99.90
26408;DHT22;14583;43.604;1.364;2023-04-15T04:40:40;10.90;99.90
26408;DHT22;14583;43.604;1.364;2023-04-15T04:43:06;10.90;99.90
26408;DHT22;14583;43.604;1.364;2023-04-15T04:45:31;10.90;99.90
26408;DHT22;14583;43.604;1.364;2023-04-15T04:47:57;10.90;99.90
26408;DHT22;14583;43.604;1.364;2023-04-15T04:50:22;10.80;99.90
26408;DHT22;14583;43.604;1.364;2023-04-15T04:52:48;10.80;99.90
26408;DHT22;14583;43.604;1.364;2023-04-15T04:55:14;10.80;99.90
26408;DHT22;14583;43.604;1.364;2023-04-15T04:57:39;10.70;99.90
26408;DHT22;14583;43.604;1.364;2023-04-15T05:00:06;10.80;99.90
26408;DHT22;14583;43.604;1.364;2023-04-15T05:02:33;10.70;99.90
26408;DHT22;14583;43.604;1.364;2023-04-15T05:04:59;10.60;99.90
26408;DHT22;14583;43.604;1.364;2023-04-15T05:07:25;10.70;99.90
26408;DHT22;14583;43.604;1.364;2023-04-15T05:09:51;10.70;99.90
26408;DHT22;14583;43.604;1.364;2023-04-15T05:12:17;10.70;99.90
26408;DHT22;14583;43.604;1.364;2023-04-15T05:14:43;10.70;99.90
26408;DHT22;14583;43.604;1.364;2023-04-15T05:17:09;10.60;99.90
26408;DHT22;14583;43.604;1.364;2023-04-15T05:19:35;10.70;99.90
26408;DHT22;14583;43.604;1.364;2023-04-15T05:22:01;10.90;99.90
26408;DHT22;14583;43.604;1.364;2023-04-15T05:24:27;10.90;99.90
26408;DHT22;14583;43.604;1.364;2023-04-15T05:26:53;10.90;99.90
26408;DHT22;14583;43.604;1.364;2023-04-15T05:29:19;10.90;99.90
26408;DHT22;14583;43.604;1.364;2023-04-15T05:31:45;10.90;99.90
26408;DHT22;14583;43.604;1.364;2023-04-15T05:34:11;11.00;99.90
26408;DHT22;14583;43.604;1.364;2023-04-15T05:36:36;11.00;99.90
26408;DHT22;14583;43.604;1.364;2023-04-15T05:39:02;10.80;99.90
26408;DHT22;14583;43.604;1.364;2023-04-15T05:41:28;10.90;99.90
26408;DHT22;14583;43.604;1.364;2023-04-15T05:43:54;10.80;99.90
26408;DHT22;14583;43.604;1.364;2023-04-15T05:46:20;10.90;99.90
26408;DHT22;14583;43.604;1.364;2023-04-15T05:48:46;10.90;99.90
26408;DHT22;14583;43.604;1.364;2023-04-15T05:51:12;10.80;99.90
26408;DHT22;14583;43.604;1.364;2023-04-15T05:53:38;10.80;99.90
26408;DHT22;14583;43.604;1.364;2023-04-15T05:56:05;10.70;99.90
26408;DHT22;14583;43.604;1.364;2023-04-15T05:58:31;10.80;99.90
26408;DHT22;14583;43.604;1.364;2023-04-15T06:00:57;10.80;99.90
26408;DHT22;14583;43.604;1.364;2023-04-15T06:03:23;10.70;99.90
26408;DHT22;14583;43.604;1.364;2023-04-15T06:05:48;10.70;99.90
26408;DHT22;14583;43.604;1.364;2023-04-15T06:08:14;10.70;99.90
26408;DHT22;14583;43.604;1.364;2023-04-15T06:10:40;10.70;99.90
26408;DHT22;14583;43.604;1.364;2023-04-15T06:13:06;10.90;99.90
26408;DHT22;14583;43.604;1.364;2023-04-15T06:15:32;10.90;99.90
26408;DHT22;14583;43.604;1.364;2023-04-15T06:17:58;10.90;99.90
26408;DHT22;14583;43.604;1.364;2023-04-15T06:20:23;10.90;99.90
26408;DHT22;14583;43.604;1.364;2023-04-15T06:22:49;11.00;99.90
26408;DHT22;14583;43.604;1.364;2023-04-15T06:25:15;11.10;99.90
26408;DHT22;14583;43.604;1.364;2023-04-15T06:27:41;11.10;99.90
26408;DHT22;14583;43.604;1.364;2023-04-15T06:30:07;11.10;99.90
26408;DHT22;14583;43.604;1.364;2023-04-15T06:32:33;11.10;99.90
26408;DHT22;14583;43.604;1.364;2023-04-15T06:34:59;11.10;99.90
26408;DHT22;14583;43.604;1.364;2023-04-15T06:37:24;11.20;99.90
26408;DHT22;14583;43.604;1.364;2023-04-15T06:39:50;11.20;99.90
26408;DHT22;14583;43.604;1.364;2023-04-15T06:42:16;11.20;99.90
26408;DHT22;14583;43.604;1.364;2023-04-15T06:44:41;11.10;99.90
26408;DHT22;14583;43.604;1.364;2023-04-15T06:47:07;11.20;99.90
26408;DHT22;14583;43.604;1.364;2023-04-15T06:49:33;11.20;99.90
26408;DHT22;14583;43.604;1.364;2023-04-15T06:52:00;11.20;99.90
26408;DHT22;14583;43.604;1.364;2023-04-15T06:54:26;11.20;99.90
26408;DHT22;14583;43.604;1.364;2023-04-15T06:56:52;11.10;99.90
26408;DHT22;14583;43.604;1.364;2023-04-15T06:59:17;11.10;99.90
26408;DHT22;14583;43.604;1.364;2023-04-15T07:01:43;11.00;99.90
26408;DHT22;14583;43.604;1.364;2023-04-15T07:04:09;11.00;99.90
26408;DHT22;14583;43.604;1.364;2023-04-15T07:06:35;10.90;99.90
26408;DHT22;14583;43.604;1.364;2023-04-15T07:09:01;11.00;99.90
26408;DHT22;14583;43.604;1.364;2023-04-15T07:11:30;11.00;99.90
26408;DHT22;14583;43.604;1.364;2023-04-15T07:13:57;11.00;99.90
26408;DHT22;14583;43.604;1.364;2023-04-15T07:16:23;11.10;99.90
26408;DHT22;14583;43.604;1.364;2023-04-15T07:18:48;11.00;99.90
26408;DHT22;14583;43.604;1.364;2023-04-15T07:21:14;11.00;99.90
26408;DHT22;14583;43.604;1.364;2023-04-15T07:23:41;11.00;99.90
26408;DHT22;14583;43.604;1.364;2023-04-15T07:26:07;11.10;99.90
26408;DHT22;14583;43.604;1.364;2023-04-15T07:28:33;11.10;99.90
26408;DHT22;14583;43.604;1.364;2023-04-15T07:30:59;11.30;99.90
26408;DHT22;14583;43.604;1.364;2023-04-15T07:33:25;11.40;99.90
26408;DHT22;14583;43.604;1.364;2023-04-15T07:35:50;11.50;99.90
26408;DHT22;14583;43.604;1.364;2023-04-15T07:38:16;11.30;99.90
26408;DHT22;14583;43.604;1.364;2023-04-15T07:40:42;11.20;99.90
26408;DHT22;14583;43.604;1.364;2023-04-15T07:43:08;11.30;99.90
26408;DHT22;14583;43.604;1.364;2023-04-15T07:45:34;11.40;99.90
26408;DHT22;14583;43.604;1.364;2023-04-15T07:48:01;11.40;99.90
26408;DHT22;14583;43.604;1.364;2023-04-15T07:50:27;11.40;99.90
26408;DHT22;14583;43.604;1.364;2023-04-15T07:52:53;11.50;99.90
26408;DHT22;14583;43.604;1.364;2023-04-15T07:55:18;11.40;99.90
26408;DHT22;14583;43.604;1.364;2023-04-15T07:57:47;11.60;99.90
26408;DHT22;14583;43.604;1.364;2023-04-15T08:00:13;11.40;99.90
26408;DHT22;14583;43.604;1.364;2023-04-15T08:02:40;11.30;99.90
26408;DHT22;14583;43.604;1.364;2023-04-15T08:05:08;11.30;99.90
26408;DHT22;14583;43.604;1.364;2023-04-15T08:07:36;11.50;99.90
26408;DHT22;14583;43.604;1.364;2023-04-15T08:10:02;11.50;99.90
26408;DHT22;14583;43.604;1.364;2023-04-15T08:12:27;11.50;99.90
26408;DHT22;14583;43.604;1.364;2023-04-15T08:14:54;11.60;99.90
26408;DHT22;14583;43.604;1.364;2023-04-15T08:17:19;11.70;99.90
26408;DHT22;14583;43.604;1.364;2023-04-15T08:19:45;11.70;99.90
26408;DHT22;14583;43.604;1.364;2023-04-15T08:22:12;11.60;99.90
26408;DHT22;14583;43.604;1.364;2023-04-15T08:24:38;11.80;99.90
26408;DHT22;14583;43.604;1.364;2023-04-15T08:27:04;11.70;99.90
26408;DHT22;14583;43.604;1.364;2023-04-15T08:29:31;11.80;99.90
26408;DHT22;14583;43.604;1.364;2023-04-15T08:31:58;11.80;99.90
26408;DHT22;14583;43.604;1.364;2023-04-15T08:34:25;11.70;99.90
26408;DHT22;14583;43.604;1.364;2023-04-15T08:36:50;11.90;99.90
26408;DHT22;14583;43.604;1.364;2023-04-15T08:39:17;12.00;99.90
26408;DHT22;14583;43.604;1.364;2023-04-15T08:41:46;11.90;99.90
26408;DHT22;14583;43.604;1.364;2023-04-15T08:44:13;12.00;99.90
26408;DHT22;14583;43.604;1.364;2023-04-15T08:46:40;11.90;99.90
26408;DHT22;14583;43.604;1.364;2023-04-15T08:49:10;11.90;99.90
26408;DHT22;14583;43.604;1.364;2023-04-15T08:51:42;12.20;99.90
26408;DHT22;14583;43.604;1.364;2023-04-15T08:54:08;12.30;99.90
26408;DHT22;14583;43.604;1.364;2023-04-15T08:56:35;12.40;99.90
26408;DHT22;14583;43.604;1.364;2023-04-15T08:59:01;12.30;99.90
26408;DHT22;14583;43.604;1.364;2023-04-15T09:01:28;12.20;99.90
26408;DHT22;14583;43.604;1.364;2023-04-15T09:03:53;12.10;99.90
26408;DHT22;14583;43.604;1.364;2023-04-15T09:06:23;12.10;99.90
26408;DHT22;14583;43.604;1.364;2023-04-15T09:08:50;12.10;99.90
26408;DHT22;14583;43.604;1.364;2023-04-15T09:11:17;12.30;99.90
26408;DHT22;14583;43.604;1.364;2023-04-15T09:13:43;12.30;99.90
26408;DHT22;14583;43.604;1.364;2023-04-15T09:16:08;12.40;99.90
26408;DHT22;14583;43.604;1.364;2023-04-15T09:18:35;12.40;99.90
26408;DHT22;14583;43.604;1.364;2023-04-15T09:21:08;12.40;99.90
26408;DHT22;14583;43.604;1.364;2023-04-15T09:23:39;12.50;99.90
26408;DHT22;14583;43.604;1.364;2023-04-15T09:26:06;12.50;99.90
26408;DHT22;14583;43.604;1.364;2023-04-15T09:28:32;12.50;99.90
26408;DHT22;14583;43.604;1.364;2023-04-15T09:30:58;12.50;99.90
26408;DHT22;14583;43.604;1.364;2023-04-15T09:33:26;12.60;99.90
26408;DHT22;14583;43.604;1.364;2023-04-15T09:36:00;12.70;99.90
26408;DHT22;14583;43.604;1.364;2023-04-15T09:38:26;12.70;99.90
26408;DHT22;14583;43.604;1.364;2023-04-15T09:40:52;12.60;99.90
26408;DHT22;14583;43.604;1.364;2023-04-15T09:43:18;12.80;99.90
26408;DHT22;14583;43.604;1.364;2023-04-15T09:45:50;12.70;99.90
26408;DHT22;14583;43.604;1.364;2023-04-15T09:48:24;12.60;99.90
26408;DHT22;14583;43.604;1.364;2023-04-15T09:50:56;12.70;99.90
26408;DHT22;14583;43.604;1.364;2023-04-15T09:53:24;12.70;99.90
26408;DHT22;14583;43.604;1.364;2023-04-15T09:55:55;12.90;99.90
26408;DHT22;14583;43.604;1.364;2023-04-15T09:58:24;12.90;99.90
26408;DHT22;14583;43.604;1.364;2023-04-15T10:00:51;12.80;99.90
26408;DHT22;14583;43.604;1.364;2023-04-15T10:05:51;12.70;99.90
26408;DHT22;14583;43.604;1.364;2023-04-15T10:08:22;12.60;99.90
26408;DHT22;14583;43.604;1.364;2023-04-15T10:10:49;12.70;99.90
26408;DHT22;14583;43.604;1.364;2023-04-15T10:13:20;12.70;99.90
26408;DHT22;14583;43.604;1.364;2023-04-15T10:16:04;12.80;99.90
26408;DHT22;14583;43.604;1.364;2023-04-15T10:18:33;12.80;99.90
26408;DHT22;14583;43.604;1.364;2023-04-15T10:21:00;12.90;99.90
26408;DHT22;14583;43.604;1.364;2023-04-15T10:23:26;12.90;99.90
26408;DHT22;14583;43.604;1.364;2023-04-15T10:25:53;12.80;99.90
26408;DHT22;14583;43.604;1.364;2023-04-15T10:28:19;13.00;99.90
26408;DHT22;14583;43.604;1.364;2023-04-15T10:30:47;13.10;99.90
26408;DHT22;14583;43.604;1.364;2023-04-15T10:33:16;13.20;99.90
26408;DHT22;14583;43.604;1.364;2023-04-15T10:35:43;13.10;99.90
26408;DHT22;14583;43.604;1.364;2023-04-15T10:41:18;13.00;99.90
26408;DHT22;14583;43.604;1.364;2023-04-15T10:44:04;12.90;99.90
26408;DHT22;14583;43.604;1.364;2023-04-15T10:49:10;12.90;99.90
26408;DHT22;14583;43.604;1.364;2023-04-15T10:51:38;13.10;99.90
26408;DHT22;14583;43.604;1.364;2023-04-15T10:54:15;13.30;99.90
26408;DHT22;14583;43.604;1.364;2023-04-15T10:56:44;13.30;99.90
26408;DHT22;14583;43.604;1.364;2023-04-15T10:59:10;13.10;99.90
26408;DHT22;14583;43.604;1.364;2023-04-15T11:01:54;13.20;99.90
26408;DHT22;14583;43.604;1.364;2023-04-15T11:04:55;13.40;99.90
26408;DHT22;14583;43.604;1.364;2023-04-15T11:07:47;13.50;99.90
26408;DHT22;14583;43.604;1.364;2023-04-15T11:12:42;13.50;99.90
26408;DHT22;14583;43.604;1.364;2023-04-15T11:15:34;13.40;99.90
26408;DHT22;14583;43.604;1.364;2023-04-15T11:18:15;13.40;99.90
26408;DHT22;14583;43.604;1.364;2023-04-15T11:20:43;13.70;99.90
26408;DHT22;14583;43.604;1.364;2023-04-15T11:23:13;13.50;99.90
26408;DHT22;14583;43.604;1.364;2023-04-15T11:25:39;13.40;99.90
26408;DHT22;14583;43.604;1.364;2023-04-15T11:28:05;13.50;99.90
26408;DHT22;14583;43.604;1.364;2023-04-15T11:30:34;13.50;99.90
26408;DHT22;14583;43.604;1.364;2023-04-15T11:33:02;13.50;99.90
26408;DHT22;14583;43.604;1.364;2023-04-15T11:35:28;13.60;99.90
26408;DHT22;14583;43.604;1.364;2023-04-15T11:37:54;13.70;99.90
26408;DHT22;14583;43.604;1.364;2023-04-15T11:40:29;13.70;99.90
26408;DHT22;14583;43.604;1.364;2023-04-15T11:43:06;13.70;99.90
26408;DHT22;14583;43.604;1.364;2023-04-15T11:45:32;13.80;99.90
26408;DHT22;14583;43.604;1.364;2023-04-15T11:48:08;14.00;99.90
26408;DHT22;14583;43.604;1.364;2023-04-15T11:50:35;13.80;99.90
26408;DHT22;14583;43.604;1.364;2023-04-15T11:53:03;13.70;99.90
26408;DHT22;14583;43.604;1.364;2023-04-15T11:55:30;13.80;99.90
26408;DHT22;14583;43.604;1.364;2023-04-15T11:58:16;13.90;99.90
26408;DHT22;14583;43.604;1.364;2023-04-15T12:00:59;14.00;99.90
26408;DHT22;14583;43.604;1.364;2023-04-15T12:03:26;14.20;99.90
26408;DHT22;14583;43.604;1.364;2023-04-15T12:13:59;14.10;99.90
26408;DHT22;14583;43.604;1.364;2023-04-15T12:16:27;14.00;99.90
26408;DHT22;14583;43.604;1.364;2023-04-15T12:18:54;14.10;99.90
26408;DHT22;14583;43.604;1.364;2023-04-15T12:21:25;14.10;99.90
26408;DHT22;14583;43.604;1.364;2023-04-15T12:23:55;14.20;99.90
26408;DHT22;14583;43.604;1.364;2023-04-15T12:26:42;14.20;99.90
26408;DHT22;14583;43.604;1.364;2023-04-15T12:29:09;14.10;99.40
26408;DHT22;14583;43.604;1.364;2023-04-15T12:31:35;14.20;99.90
26408;DHT22;14583;43.604;1.364;2023-04-15T12:34:01;14.20;99.90
26408;DHT22;14583;43.604;1.364;2023-04-15T12:36:28;14.30;99.90
26408;DHT22;14583;43.604;1.364;2023-04-15T12:38:56;14.30;99.90
26408;DHT22;14583;43.604;1.364;2023-04-15T12:41:21;14.20;99.90
26408;DHT22;14583;43.604;1.364;2023-04-15T12:43:48;14.20;99.90
26408;DHT22;14583;43.604;1.364;2023-04-15T12:46:14;14.20;99.90
26408;DHT22;14583;43.604;1.364;2023-04-15T12:48:40;14.20;99.40
26408;DHT22;14583;43.604;1.364;2023-04-15T12:51:06;14.40;99.60
26408;DHT22;14583;43.604;1.364;2023-04-15T12:53:32;14.60;99.90
26408;DHT22;14583;43.604;1.364;2023-04-15T12:55:57;14.60;98.70
26408;DHT22;14583;43.604;1.364;2023-04-15T12:58:23;14.50;97.80
26408;DHT22;14583;43.604;1.364;2023-04-15T13:00:49;14.50;98.20
26408;DHT22;14583;43.604;1.364;2023-04-15T13:03:15;14.30;99.20
26408;DHT22;14583;43.604;1.364;2023-04-15T13:05:41;14.50;98.20
26408;DHT22;14583;43.604;1.364;2023-04-15T13:08:07;14.70;97.90
26408;DHT22;14583;43.604;1.364;2023-04-15T13:10:34;14.80;98.00
26408;DHT22;14583;43.604;1.364;2023-04-15T13:13:01;14.90;97.20
26408;DHT22;14583;43.604;1.364;2023-04-15T13:15:28;14.70;97.40
26408;DHT22;14583;43.604;1.364;2023-04-15T13:17:53;14.90;97.50
26408;DHT22;14583;43.604;1.364;2023-04-15T13:20:19;15.10;97.30
26408;DHT22;14583;43.604;1.364;2023-04-15T13:22:45;15.00;97.20
26408;DHT22;14583;43.604;1.364;2023-04-15T13:25:11;15.00;96.80
26408;DHT22;14583;43.604;1.364;2023-04-15T13:27:37;15.20;96.40
26408;DHT22;14583;43.604;1.364;2023-04-15T13:30:03;15.10;94.70
26408;DHT22;14583;43.604;1.364;2023-04-15T13:32:29;15.20;94.70
26408;DHT22;14583;43.604;1.364;2023-04-15T13:34:55;15.30;94.70
26408;DHT22;14583;43.604;1.364;2023-04-15T13:37:25;15.50;94.90
26408;DHT22;14583;43.604;1.364;2023-04-15T13:39:52;15.60;94.50
26408;DHT22;14583;43.604;1.364;2023-04-15T13:42:18;15.70;94.40
26408;DHT22;14583;43.604;1.364;2023-04-15T13:44:43;15.70;95.00
26408;DHT22;14583;43.604;1.364;2023-04-15T13:47:09;15.80;94.80
26408;DHT22;14583;43.604;1.364;2023-04-15T13:49:35;15.50;94.60
26408;DHT22;14583;43.604;1.364;2023-04-15T13:52:01;15.40;95.60
26408;DHT22;14583;43.604;1.364;2023-04-15T13:54:26;15.30;95.00
26408;DHT22;14583;43.604;1.364;2023-04-15T13:56:53;15.30;94.30
26408;DHT22;14583;43.604;1.364;2023-04-15T13:59:20;15.30;93.80
26408;DHT22;14583;43.604;1.364;2023-04-15T14:01:46;15.40;94.00
26408;DHT22;14583;43.604;1.364;2023-04-15T14:04:12;15.30;93.90
26408;DHT22;14583;43.604;1.364;2023-04-15T14:06:38;15.60;93.70
26408;DHT22;14583;43.604;1.364;2023-04-15T14:09:03;15.60;93.20
26408;DHT22;14583;43.604;1.364;2023-04-15T14:11:29;15.70;93.90
26408;DHT22;14583;43.604;1.364;2023-04-15T14:13:55;15.80;93.90
26408;DHT22;14583;43.604;1.364;2023-04-15T14:16:20;15.60;93.50
26408;DHT22;14583;43.604;1.364;2023-04-15T14:18:46;15.40;94.00
26408;DHT22;14583;43.604;1.364;2023-04-15T14:21:12;15.40;94.20
26408;DHT22;14583;43.604;1.364;2023-04-15T14:23:37;15.10;93.70
26408;DHT22;14583;43.604;1.364;2023-04-15T14:26:03;15.40;93.90
26408;DHT22;14583;43.604;1.364;2023-04-15T14:28:29;15.90;93.30
26408;DHT22;14583;43.604;1.364;2023-04-15T14:30:54;15.80;92.50
26408;DHT22;14583;43.604;1.364;2023-04-15T14:33:20;15.80;92.60
26408;DHT22;14583;43.604;1.364;2023-04-15T14:35:45;15.60;92.60
26408;DHT22;14583;43.604;1.364;2023-04-15T14:38:11;15.70;92.50
26408;DHT22;14583;43.604;1.364;2023-04-15T14:40:37;15.80;91.20
26408;DHT22;14583;43.604;1.364;2023-04-15T14:43:03;15.70;90.40
26408;DHT22;14583;43.604;1.364;2023-04-15T14:45:29;15.60;91.60
26408;DHT22;14583;43.604;1.364;2023-04-15T14:47:55;15.60;92.10
26408;DHT22;14583;43.604;1.364;2023-04-15T14:50:21;15.60;92.10
26408;DHT22;14583;43.604;1.364;2023-04-15T14:52:47;15.80;92.30
26408;DHT22;14583;43.604;1.364;2023-04-15T14:55:13;16.20;92.40
26408;DHT22;14583;43.604;1.364;2023-04-15T14:57:39;16.30;91.90
26408;DHT22;14583;43.604;1.364;2023-04-15T15:00:07;16.20;91.30
26408;DHT22;14583;43.604;1.364;2023-04-15T15:02:33;16.00;91.80
26408;DHT22;14583;43.604;1.364;2023-04-15T15:05:00;16.20;91.90
26408;DHT22;14583;43.604;1.364;2023-04-15T15:07:26;16.40;91.50
26408;DHT22;14583;43.604;1.364;2023-04-15T15:09:52;16.20;91.50
26408;DHT22;14583;43.604;1.364;2023-04-15T15:12:18;16.00;91.70
26408;DHT22;14583;43.604;1.364;2023-04-15T15:14:43;15.90;92.00
26408;DHT22;14583;43.604;1.364;2023-04-15T15:17:09;15.80;92.40
26408;DHT22;14583;43.604;1.364;2023-04-15T15:19:35;16.10;92.30
26408;DHT22;14583;43.604;1.364;2023-04-15T15:22:02;16.10;92.10
26408;DHT22;14583;43.604;1.364;2023-04-15T15:24:28;15.90;92.50
26408;DHT22;14583;43.604;1.364;2023-04-15T15:26:53;15.70;92.40
26408;DHT22;14583;43.604;1.364;2023-04-15T15:29:19;15.50;92.50
26408;DHT22;14583;43.604;1.364;2023-04-15T15:31:45;15.40;92.90
26408;DHT22;14583;43.604;1.364;2023-04-15T15:34:10;15.00;92.80
26408;DHT22;14583;43.604;1.364;2023-04-15T15:36:36;14.80;93.50
26408;DHT22;14583;43.604;1.364;2023-04-15T15:39:02;14.70;93.40
26408;DHT22;14583;43.604;1.364;2023-04-15T15:41:28;14.70;93.80
26408;DHT22;14583;43.604;1.364;2023-04-15T15:43:54;14.70;93.80
26408;DHT22;14583;43.604;1.364;2023-04-15T15:46:20;14.80;93.70